TimeMST,TemperatureF,Dew PointF,Humidity,Sea Level PressureIn,VisibilityMPH,Wind Direction,Wind SpeedMPH,Gust SpeedMPH,PrecipitationIn,Events,Conditions,WindDirDegrees,DateUTC
12:00 AM,21.0,18.0,88,30.17,3.0,NNE,8.1,-,0.00,Snow,Light Snow,20,2013-12-23 07:00:00
12:51 AM,19.4,17.6,93,30.17,2.5,North,6.9,-,0.00,Snow,Light Snow,350,2013-12-23 07:51:00
12:52 AM,19.9,18.0,92,30.28,2.5,North,5.8,-,0.00,Snow,Light Snow,360,2013-12-23 07:52:00
1:03 AM,19.9,18.0,92,30.17,1.5,North,5.8,-,0.00,Snow,Light Snow,350,2013-12-23 08:03:00
1:53 AM,19.9,18.0,92,30.30,1.5,North,5.8,-,0.00,Snow,Light Snow,350,2013-12-23 08:53:00
2:01 AM,19.9,18.0,92,30.18,2.0,NNE,5.8,-,0.00,Snow,Light Snow,20,2013-12-23 09:01:00
2:05 AM,19.9,18.0,92,30.18,2.0,NE,4.6,-,0.00,Snow,Light Snow,40,2013-12-23 09:05:00
2:08 AM,19.9,18.0,92,30.18,2.5,NE,3.5,-,0.00,Snow,Light Snow,40,2013-12-23 09:08:00
2:11 AM,19.9,17.1,89,30.18,3.0,ENE,4.6,-,0.00,Snow,Light Snow,60,2013-12-23 09:11:00
2:37 AM,19.0,16.0,88,30.18,4.0,Calm,Calm,-,0.00,,Overcast,0,2013-12-23 09:37:00
2:53 AM,17.1,15.1,92,30.30,5.0,Calm,Calm,-,0.00,Snow,Light Snow,0,2013-12-23 09:53:00
3:53 AM,18.0,15.1,88,30.31,6.0,ESE,3.5,-,0.00,Snow,Light Snow,120,2013-12-23 10:53:00
4:00 AM,18.0,15.1,88,30.17,6.0,SE,6.9,-,0.00,Snow,Light Snow,140,2013-12-23 11:00:00
4:23 AM,19.0,15.1,85,30.18,7.0,ESE,5.8,-,0.00,,Overcast,110,2013-12-23 11:23:00
4:53 AM,17.1,14.0,88,30.32,10.0,ESE,4.6,-,0.00,,Overcast,110,2013-12-23 11:53:00
5:53 AM,18.0,14.0,84,30.33,10.0,ESE,4.6,-,N/A,,Overcast,120,2013-12-23 12:53:00
6:53 AM,19.0,16.0,88,30.36,10.0,WSW,4.6,-,N/A,,Mostly Cloudy,240,2013-12-23 13:53:00
7:45 AM,16.0,14.0,92,30.22,6.0,SW,3.5,-,N/A,,Scattered Clouds,220,2013-12-23 14:45:00
7:53 AM,16.0,14.0,92,30.37,6.0,South,4.6,-,N/A,,Scattered Clouds,190,2013-12-23 14:53:00
8:53 AM,19.9,16.0,85,30.36,10.0,South,5.8,-,N/A,,Partly Cloudy,170,2013-12-23 15:53:00
9:53 AM,27.0,19.0,72,30.36,10.0,SSE,5.8,-,N/A,,Partly Cloudy,150,2013-12-23 16:53:00
10:53 AM,30.9,16.0,54,30.34,10.0,Variable,3.5,-,N/A,,Partly Cloudy,0,2013-12-23 17:53:00
11:53 AM,36.0,17.1,46,30.30,10.0,Calm,Calm,-,N/A,,Partly Cloudy,0,2013-12-23 18:53:00
12:53 PM,39.0,16.0,39,30.25,10.0,SE,4.6,-,N/A,,Scattered Clouds,130,2013-12-23 19:53:00
1:53 PM,44.1,15.1,31,30.21,10.0,Variable,4.6,-,N/A,,Scattered Clouds,0,2013-12-23 20:53:00
2:53 PM,46.0,14.0,28,30.21,10.0,NW,4.6,-,N/A,,Scattered Clouds,320,2013-12-23 21:53:00
3:53 PM,43.0,15.1,32,30.23,10.0,NE,4.6,-,N/A,,Scattered Clouds,40,2013-12-23 22:53:00
4:53 PM,41.0,16.0,36,30.25,10.0,Calm,Calm,-,N/A,,Scattered Clouds,0,2013-12-23 23:53:00
5:53 PM,39.9,16.0,38,30.25,10.0,NW,4.6,-,N/A,,Scattered Clouds,320,2013-12-24 00:53:00
6:53 PM,33.1,18.0,54,30.27,10.0,South,5.8,-,N/A,,Scattered Clouds,190,2013-12-24 01:53:00
7:53 PM,33.1,18.0,54,30.27,10.0,SSE,8.1,-,N/A,,Scattered Clouds,150,2013-12-24 02:53:00
8:53 PM,32.0,17.1,54,30.26,10.0,SSE,9.2,-,N/A,,Scattered Clouds,150,2013-12-24 03:53:00
9:53 PM,33.1,17.1,52,30.22,10.0,SSW,6.9,-,N/A,,Scattered Clouds,210,2013-12-24 04:53:00
10:53 PM,39.0,18.0,43,30.17,10.0,SW,10.4,-,N/A,,Mostly Cloudy,230,2013-12-24 05:53:00
11:53 PM,39.9,19.0,43,30.13,10.0,SW,10.4,-,N/A,,Mostly Cloudy,220,2013-12-24 06:53:00